createdAt,value
2019-01-25T00:01:01.203Z,-4.70
2019-01-25T00:03:30.690Z,-4.80
2019-01-25T00:06:01.698Z,-4.70
2019-01-25T00:08:31.188Z,-4.80
2019-01-25T00:11:02.028Z,-4.80
2019-01-25T00:13:31.502Z,-4.80
2019-01-25T00:16:02.420Z,-4.80
2019-01-25T00:18:31.942Z,-4.80
2019-01-25T00:21:01.422Z,-4.80
2019-01-25T00:23:30.948Z,-4.80
2019-01-25T00:26:00.607Z,-4.80
2019-01-25T00:28:30.131Z,-4.90
2019-01-25T00:30:59.547Z,-4.80
2019-01-25T00:33:28.998Z,-4.80
2019-01-25T00:36:00.082Z,-4.80
2019-01-25T00:38:29.530Z,-4.80
2019-01-25T00:41:00.317Z,-5.00
2019-01-25T00:43:29.826Z,-5.00
2019-01-25T00:46:00.716Z,-5.00
2019-01-25T00:48:30.226Z,-5.00
2019-01-25T00:50:59.719Z,-5.00
2019-01-25T00:53:29.161Z,-5.00
2019-01-25T00:55:58.647Z,-5.00
2019-01-25T00:58:28.179Z,-5.00
2019-01-25T01:00:58.963Z,-5.00
2019-01-25T01:03:28.447Z,-4.90
2019-01-25T01:05:57.910Z,-4.90
2019-01-25T01:08:27.432Z,-5.00
2019-01-25T01:10:56.918Z,-5.00
2019-01-25T01:13:26.426Z,-5.00
2019-01-25T01:15:55.847Z,-5.10
2019-01-25T01:18:25.288Z,-5.10
2019-01-25T01:20:54.765Z,-5.00
2019-01-25T01:23:24.299Z,-5.10
2019-01-25T01:25:55.290Z,-5.10
2019-01-25T01:28:25.079Z,-5.10
2019-01-25T01:30:54.566Z,-5.00
2019-01-25T01:33:24.088Z,-5.00
2019-01-25T01:35:53.611Z,-5.00
2019-01-25T01:38:23.091Z,-5.00
2019-01-25T01:40:53.910Z,-5.00
2019-01-25T01:43:23.318Z,-5.00
2019-01-25T01:45:52.843Z,-5.00
2019-01-25T01:48:22.259Z,-5.00
2019-01-25T01:50:51.784Z,-5.00
2019-01-25T01:53:21.262Z,-5.00
2019-01-25T01:55:50.774Z,-5.00
2019-01-25T01:58:20.654Z,-5.00
2019-01-25T02:00:51.577Z,-4.90
2019-01-25T02:03:21.060Z,-4.90
2019-01-25T02:05:50.878Z,-5.00
2019-01-25T02:08:20.364Z,-5.00
2019-01-25T02:10:49.884Z,-4.90
2019-01-25T02:13:19.367Z,-5.00
2019-01-25T02:15:48.963Z,-5.00
2019-01-25T02:18:18.440Z,-5.00
2019-01-25T02:20:47.958Z,-5.00
2019-01-25T02:23:17.439Z,-5.00
2019-01-25T02:25:48.463Z,-5.00
2019-01-25T02:28:17.949Z,-5.00
2019-01-25T02:30:47.470Z,-4.90
2019-01-25T02:33:16.959Z,-4.90
2019-01-25T02:35:46.406Z,-4.80
2019-01-25T02:38:15.830Z,-4.90
2019-01-25T02:40:46.565Z,-4.80
2019-01-25T02:43:16.053Z,-4.90
2019-01-25T02:45:45.533Z,-4.90
2019-01-25T02:48:15.066Z,-4.90
2019-01-25T02:50:46.114Z,-4.90
2019-01-25T02:53:15.626Z,-4.90
2019-01-25T02:55:45.124Z,-4.90
2019-01-25T02:58:14.564Z,-4.90
2019-01-25T03:00:45.321Z,-4.90
2019-01-25T03:03:14.837Z,-4.90
2019-01-25T03:05:45.619Z,-4.90
2019-01-25T03:08:15.071Z,-4.90
2019-01-25T03:10:47.271Z,-4.90
2019-01-25T03:13:17.075Z,-4.90
2019-01-25T03:15:47.760Z,-4.80
2019-01-25T03:18:17.313Z,-4.90
2019-01-25T03:20:47.959Z,-4.90
2019-01-25T03:23:17.411Z,-4.90
2019-01-25T03:25:48.204Z,-4.90
2019-01-25T03:28:17.653Z,-4.90
2019-01-25T03:30:47.136Z,-4.80
2019-01-25T03:33:16.665Z,-4.90
2019-01-25T03:35:47.334Z,-4.90
2019-01-25T03:38:16.846Z,-4.90
2019-01-25T03:40:46.326Z,-4.90
2019-01-25T03:43:15.834Z,-5.00
2019-01-25T03:45:45.324Z,-4.90
2019-01-25T03:48:14.772Z,-4.90
2019-01-25T03:50:44.184Z,-4.90
2019-01-25T03:53:13.630Z,-4.90
2019-01-25T03:55:43.110Z,-4.90
2019-01-25T03:58:12.631Z,-4.90
2019-01-25T04:00:42.137Z,-4.90
2019-01-25T04:03:11.654Z,-4.90
2019-01-25T04:05:41.141Z,-4.80
2019-01-25T04:08:10.559Z,-4.80
2019-01-25T04:10:41.383Z,-4.80
2019-01-25T04:13:10.803Z,-4.80
2019-01-25T04:15:41.781Z,-4.80
2019-01-25T04:18:11.197Z,-4.80
2019-01-25T04:20:42.039Z,-4.90
2019-01-25T04:23:11.520Z,-4.90
2019-01-25T04:25:42.234Z,-4.80
2019-01-25T04:28:11.686Z,-4.80
2019-01-25T04:30:41.203Z,-4.90
2019-01-25T04:33:10.691Z,-4.80
2019-01-25T04:35:41.738Z,-4.80
2019-01-25T04:38:11.128Z,-4.80
2019-01-25T04:40:40.638Z,-4.80
2019-01-25T04:43:10.050Z,-4.90
2019-01-25T04:45:40.771Z,-4.80
2019-01-25T04:48:14.308Z,-4.80
2019-01-25T04:50:43.749Z,-4.80
2019-01-25T04:53:13.175Z,-4.80
2019-01-25T04:55:42.618Z,-4.80
2019-01-25T04:58:14.169Z,-4.80
2019-01-25T05:00:43.629Z,-4.90
2019-01-25T05:03:13.113Z,-4.80
2019-01-25T05:05:43.941Z,-4.80
2019-01-25T05:08:18.130Z,-4.80
2019-01-25T05:10:49.001Z,-4.80
2019-01-25T05:13:18.411Z,-4.70
2019-01-25T05:15:47.860Z,-4.70
2019-01-25T05:18:17.281Z,-4.80
2019-01-25T05:20:48.097Z,-4.70
2019-01-25T05:23:17.517Z,-4.70
2019-01-25T05:25:46.971Z,-4.80
2019-01-25T05:28:17.419Z,-4.70
2019-01-25T05:30:56.270Z,-4.80
2019-01-25T05:33:25.683Z,-4.70
2019-01-25T05:35:56.616Z,-4.80
2019-01-25T05:38:26.028Z,-4.70
2019-01-25T05:40:55.453Z,-4.70
2019-01-25T05:43:24.895Z,-4.70
2019-01-25T05:45:54.322Z,-4.70
2019-01-25T05:48:27.023Z,-4.70
2019-01-25T05:50:59.770Z,-4.70
2019-01-25T05:53:29.223Z,-4.70
2019-01-25T05:55:58.640Z,-4.70
2019-01-25T05:58:28.082Z,-4.70
2019-01-25T06:00:57.495Z,-4.70
2019-01-25T06:03:26.946Z,-4.70
2019-01-25T06:06:00.895Z,-4.70
2019-01-25T06:08:31.403Z,-4.70
2019-01-25T06:11:04.518Z,-4.70
2019-01-25T06:13:34.013Z,-4.70
2019-01-25T06:16:04.965Z,-4.70
2019-01-25T06:18:34.430Z,-4.70
2019-01-25T06:21:05.396Z,-4.70
2019-01-25T06:23:34.838Z,-4.70
2019-01-25T06:26:04.385Z,-4.70
2019-01-25T06:28:33.835Z,-4.70
2019-01-25T06:31:04.527Z,-4.60
2019-01-25T06:33:33.970Z,-4.60
2019-01-25T06:36:04.763Z,-4.60
2019-01-25T06:38:34.207Z,-4.70
2019-01-25T06:41:04.994Z,-4.60
2019-01-25T06:43:34.442Z,-4.60
2019-01-25T06:46:05.241Z,-4.70
2019-01-25T06:48:34.747Z,-4.70
2019-01-25T06:51:05.426Z,-4.70
2019-01-25T06:53:34.942Z,-4.70
2019-01-25T06:56:04.894Z,-4.80
2019-01-25T06:58:44.785Z,-4.70
2019-01-25T07:01:21.758Z,-4.80
2019-01-25T07:03:51.254Z,-4.70
2019-01-25T07:06:22.022Z,-4.70
2019-01-25T07:08:51.475Z,-4.70
2019-01-25T07:11:22.363Z,-4.70
2019-01-25T07:13:51.891Z,-4.70
2019-01-25T07:16:22.574Z,-4.70
2019-01-25T07:18:52.138Z,-4.70
2019-01-25T07:21:22.817Z,-4.70
2019-01-25T07:23:52.369Z,-4.70
2019-01-25T07:26:21.980Z,-4.70
2019-01-25T07:28:51.486Z,-4.60
2019-01-25T07:31:22.245Z,-4.60
2019-01-25T07:33:51.767Z,-4.60
2019-01-25T07:36:22.567Z,-4.50
2019-01-25T07:38:52.266Z,-4.50
2019-01-25T07:41:23.107Z,-4.50
2019-01-25T07:43:52.596Z,-4.50
2019-01-25T07:46:22.106Z,-4.40
2019-01-25T07:48:51.552Z,-4.30
2019-01-25T07:51:21.006Z,-4.30
2019-01-25T07:53:50.601Z,-4.20
2019-01-25T07:56:21.361Z,-4.20
2019-01-25T07:58:50.749Z,-4.20
2019-01-25T08:01:20.181Z,-4.10
2019-01-25T08:03:49.639Z,-4.20
2019-01-25T08:06:20.508Z,-4.10
2019-01-25T08:08:50.009Z,-4.00
2019-01-25T08:11:19.507Z,-4.00
2019-01-25T08:13:49.001Z,-3.90
2019-01-25T08:16:18.506Z,-3.90
2019-01-25T08:18:47.988Z,-3.90
2019-01-25T08:21:18.433Z,-3.80
2019-01-25T08:23:47.904Z,-3.90
2019-01-25T08:26:17.433Z,-3.80
2019-01-25T08:28:46.961Z,-3.80
2019-01-25T08:31:17.822Z,-3.80
2019-01-25T08:33:47.299Z,-3.90
2019-01-25T08:36:18.016Z,-3.70
2019-01-25T08:38:47.499Z,-3.70
2019-01-25T08:41:18.421Z,-3.80
2019-01-25T08:43:49.401Z,-3.70
2019-01-25T08:46:18.920Z,-3.70
2019-01-25T08:48:48.551Z,-3.60
2019-01-25T08:51:17.982Z,-3.60
2019-01-25T08:53:48.373Z,-3.50
2019-01-25T08:56:19.184Z,-3.50
2019-01-25T08:58:48.647Z,-3.60
2019-01-25T09:01:18.111Z,-3.40
2019-01-25T09:03:47.629Z,-3.40
2019-01-25T09:06:17.047Z,-3.30
2019-01-25T09:08:46.564Z,-3.10
2019-01-25T09:11:16.050Z,-3.10
2019-01-25T09:13:45.500Z,-3.20
2019-01-25T09:16:14.980Z,-3.20
2019-01-25T09:18:44.494Z,-3.20
2019-01-25T09:21:15.180Z,-3.20
2019-01-25T09:23:44.698Z,-3.20
2019-01-25T09:26:14.188Z,-3.20
2019-01-25T09:28:43.706Z,-3.10
2019-01-25T09:31:14.394Z,-2.70
2019-01-25T09:33:43.847Z,-2.60
2019-01-25T09:36:13.267Z,-2.20
2019-01-25T09:38:42.786Z,-2.40
2019-01-25T09:41:13.466Z,-2.70
2019-01-25T09:43:43.007Z,-2.10
2019-01-25T09:46:13.699Z,-1.20
2019-01-25T09:48:43.218Z,-1.00
2019-01-25T09:51:13.898Z,-0.70
2019-01-25T09:53:43.410Z,0.00
2019-01-25T09:56:14.208Z,0.40
2019-01-25T09:58:43.728Z,1.30
2019-01-25T10:01:13.321Z,1.40
2019-01-25T10:03:42.833Z,1.00
2019-01-25T10:06:13.520Z,1.10
2019-01-25T10:08:43.030Z,0.60
2019-01-25T10:11:13.706Z,0.80
2019-01-25T10:13:43.223Z,1.40
2019-01-25T10:16:12.699Z,1.70
2019-01-25T10:18:42.214Z,2.40
2019-01-25T10:21:12.894Z,3.60
2019-01-25T10:23:42.403Z,2.60
2019-01-25T10:26:13.324Z,2.60
2019-01-25T10:28:42.838Z,3.10
2019-01-25T10:31:12.257Z,2.50
2019-01-25T10:33:41.771Z,1.40
2019-01-25T10:36:11.178Z,0.60
2019-01-25T10:38:40.635Z,0.60
2019-01-25T10:41:11.311Z,0.70
2019-01-25T10:43:40.847Z,0.20
2019-01-25T10:46:10.331Z,-0.20
2019-01-25T10:48:39.823Z,0.00
2019-01-25T10:51:09.350Z,-0.20
2019-01-25T10:53:38.775Z,0.40
2019-01-25T10:56:09.607Z,1.50
2019-01-25T10:58:39.087Z,1.90
2019-01-25T11:01:10.035Z,1.80
2019-01-25T11:03:39.494Z,3.40
2019-01-25T11:06:10.231Z,2.80
2019-01-25T11:08:39.713Z,3.40
2019-01-25T11:11:10.716Z,2.10
2019-01-25T11:13:40.197Z,1.50
2019-01-25T11:16:11.913Z,0.90
2019-01-25T11:18:40.827Z,0.60
2019-01-25T11:21:11.326Z,0.20
2019-01-25T11:23:40.860Z,-0.20
2019-01-25T11:26:10.383Z,-0.70
2019-01-25T11:28:39.868Z,-1.20
2019-01-25T11:31:09.398Z,-1.40
2019-01-25T11:33:38.803Z,-1.60
2019-01-25T11:36:09.722Z,-1.60
2019-01-25T11:38:39.139Z,-1.20
2019-01-25T11:41:08.586Z,-1.80
2019-01-25T11:43:38.067Z,-1.80
2019-01-25T11:46:07.521Z,-1.50
2019-01-25T11:48:36.934Z,-1.60
2019-01-25T11:51:07.664Z,-1.40
2019-01-25T11:53:37.081Z,-1.40
2019-01-25T11:56:07.868Z,-1.90
2019-01-25T11:58:37.354Z,-1.90
2019-01-25T12:01:07.009Z,-1.50
2019-01-25T12:03:36.598Z,-1.80
2019-01-25T12:06:06.120Z,-2.00
2019-01-25T12:08:35.600Z,-2.20
2019-01-25T12:11:06.427Z,-1.80
2019-01-25T12:13:35.923Z,-1.60
2019-01-25T12:16:06.651Z,-1.30
2019-01-25T12:18:36.169Z,-1.50
2019-01-25T12:21:07.055Z,-1.50
2019-01-25T12:23:36.570Z,-1.50
2019-01-25T12:26:07.363Z,-1.50
2019-01-25T12:28:36.811Z,-1.50
2019-01-25T12:31:06.225Z,-1.60
2019-01-25T12:33:35.736Z,-1.30
2019-01-25T12:36:05.215Z,-1.00
2019-01-25T12:38:34.726Z,-0.60
2019-01-25T12:41:05.692Z,-0.10
2019-01-25T12:43:35.144Z,-0.10
2019-01-25T12:46:04.692Z,-0.30
2019-01-25T12:48:34.207Z,-0.30
2019-01-25T12:51:06.883Z,-1.20
2019-01-25T12:53:37.419Z,-1.30
2019-01-25T12:56:08.094Z,-1.50
2019-01-25T12:58:37.545Z,-2.00
2019-01-25T13:01:09.919Z,-2.20
2019-01-25T13:03:39.359Z,-2.00
2019-01-25T13:06:10.153Z,-2.40
2019-01-25T13:08:39.603Z,-2.20
2019-01-25T13:11:10.290Z,-2.00
2019-01-25T13:13:39.730Z,-1.90
2019-01-25T13:16:10.815Z,-1.80
2019-01-25T13:18:40.263Z,-1.80
2019-01-25T13:21:09.754Z,-2.00
2019-01-25T13:23:39.272Z,-2.10
2019-01-25T13:26:08.694Z,-2.10
2019-01-25T13:28:41.736Z,-2.10
2019-01-25T13:31:09.237Z,-2.00
2019-01-25T13:33:38.792Z,-1.80
2019-01-25T13:36:10.351Z,-1.80
2019-01-25T13:38:39.803Z,-1.60
2019-01-25T13:41:09.217Z,-1.60
2019-01-25T13:43:39.159Z,-1.50
2019-01-25T13:46:10.360Z,-1.60
2019-01-25T13:48:39.778Z,-1.80
2019-01-25T13:51:09.295Z,-1.80
2019-01-25T13:53:38.779Z,-1.90
2019-01-25T13:56:08.226Z,-2.10
2019-01-25T13:58:37.706Z,-2.10
2019-01-25T14:01:08.522Z,-2.20
2019-01-25T14:03:38.010Z,-2.20
2019-01-25T14:06:08.999Z,-2.40
2019-01-25T14:08:38.495Z,-2.20
2019-01-25T14:11:09.306Z,-2.30
2019-01-25T14:13:38.783Z,-2.40
2019-01-25T14:16:08.295Z,-2.30
2019-01-25T14:18:37.779Z,-2.30
2019-01-25T14:21:07.294Z,-2.30
2019-01-25T14:23:36.774Z,-2.30
2019-01-25T14:26:07.502Z,-2.30
2019-01-25T14:28:36.983Z,-2.30
2019-01-25T14:31:06.506Z,-2.30
2019-01-25T14:33:35.990Z,-2.40
2019-01-25T14:36:05.435Z,-2.50
2019-01-25T14:38:35.214Z,-2.40
2019-01-25T14:41:04.738Z,-2.40
2019-01-25T14:43:34.232Z,-2.40
2019-01-25T14:46:03.759Z,-2.30
2019-01-25T14:48:38.075Z,-2.40
2019-01-25T14:51:04.451Z,-2.30
2019-01-25T14:53:33.949Z,-2.40
2019-01-25T14:56:03.459Z,-2.50
2019-01-25T14:58:32.942Z,-2.50
2019-01-25T15:01:03.886Z,-2.60
2019-01-25T15:03:33.466Z,-2.50
2019-01-25T15:06:04.354Z,-2.70
2019-01-25T15:08:33.870Z,-2.50
2019-01-25T15:11:03.354Z,-2.60
2019-01-25T15:13:32.875Z,-2.60
2019-01-25T15:16:03.663Z,-2.60
2019-01-25T15:18:33.189Z,-2.70
2019-01-25T15:21:03.866Z,-2.70
2019-01-25T15:23:33.380Z,-2.70
2019-01-25T15:26:02.875Z,-2.70
2019-01-25T15:28:32.459Z,-2.70
2019-01-25T15:31:01.942Z,-2.80
2019-01-25T15:33:31.470Z,-2.80
2019-01-25T15:36:00.951Z,-2.80
2019-01-25T15:38:30.471Z,-2.90
2019-01-25T15:40:59.950Z,-2.80
2019-01-25T15:43:29.400Z,-2.80
2019-01-25T15:45:58.879Z,-2.80
2019-01-25T15:48:28.399Z,-2.80
2019-01-25T15:50:57.810Z,-2.80
2019-01-25T15:53:27.327Z,-2.70
2019-01-25T15:55:58.119Z,-2.90
2019-01-25T15:58:27.626Z,-2.90
2019-01-25T16:00:58.318Z,-2.90
2019-01-25T16:03:27.825Z,-2.90
2019-01-25T16:05:57.237Z,-3.00
2019-01-25T16:08:26.760Z,-3.00
2019-01-25T16:10:57.638Z,-3.00
2019-01-25T16:13:27.088Z,-3.00
2019-01-25T16:15:57.870Z,-2.90
2019-01-25T16:18:27.383Z,-3.00
2019-01-25T16:20:56.799Z,-3.00
2019-01-25T16:23:26.247Z,-2.90
2019-01-25T16:25:57.140Z,-3.00
2019-01-25T16:28:26.580Z,-2.90
2019-01-25T16:30:57.274Z,-2.90
2019-01-25T16:33:26.834Z,-3.00
2019-01-25T16:35:57.613Z,-2.90
2019-01-25T16:38:27.060Z,-2.90
2019-01-25T16:40:56.505Z,-2.80
2019-01-25T16:43:25.992Z,-2.90
2019-01-25T16:45:55.506Z,-3.00
2019-01-25T16:48:24.989Z,-2.80
2019-01-25T16:50:55.914Z,-2.80
2019-01-25T16:53:25.325Z,-2.80
2019-01-25T16:55:54.786Z,-2.80
2019-01-25T16:58:24.271Z,-2.80
2019-01-25T17:00:55.290Z,-2.90
2019-01-25T17:03:24.708Z,-2.90
2019-01-25T17:05:54.342Z,-2.90
2019-01-25T17:08:23.758Z,-2.90
2019-01-25T17:10:54.574Z,-2.90
2019-01-25T17:13:23.990Z,-2.90
2019-01-25T17:15:55.492Z,-2.90
2019-01-25T17:18:24.928Z,-3.00
2019-01-25T17:20:56.250Z,-2.90
2019-01-25T17:23:25.661Z,-2.90
2019-01-25T17:25:56.452Z,-2.90
2019-01-25T17:28:25.934Z,-2.80
2019-01-25T17:30:55.457Z,-2.80
2019-01-25T17:33:24.866Z,-2.80
2019-01-25T17:35:55.787Z,-2.70
2019-01-25T17:38:25.276Z,-2.80
2019-01-25T17:40:54.789Z,-2.80
2019-01-25T17:43:24.275Z,-2.70
2019-01-25T17:45:54.999Z,-2.70
2019-01-25T17:48:24.483Z,-2.80
2019-01-25T17:50:54.002Z,-2.80
2019-01-25T17:53:23.517Z,-2.70
2019-01-25T17:55:54.205Z,-2.70
2019-01-25T17:58:23.618Z,-2.80
2019-01-25T18:00:54.805Z,-2.70
2019-01-25T18:03:24.299Z,-2.70
2019-01-25T18:05:55.194Z,-2.80
2019-01-25T18:08:24.614Z,-2.70
2019-01-25T18:10:54.132Z,-2.70
2019-01-25T18:13:23.652Z,-2.70
2019-01-25T18:15:54.445Z,-2.70
2019-01-25T18:18:23.962Z,-2.70
2019-01-25T18:20:54.647Z,-2.70
2019-01-25T18:23:25.633Z,-2.60
2019-01-25T18:25:55.929Z,-2.60
2019-01-25T18:28:37.675Z,-2.70
2019-01-25T18:31:10.347Z,-2.70
2019-01-25T18:33:39.858Z,-2.70
2019-01-25T18:36:10.652Z,-2.70
2019-01-25T18:38:40.090Z,-2.70
2019-01-25T18:41:09.498Z,-2.70
2019-01-25T18:43:39.016Z,-2.70
2019-01-25T18:46:09.801Z,-2.70
2019-01-25T18:48:39.248Z,-2.60
2019-01-25T18:51:08.733Z,-2.60
2019-01-25T18:53:38.245Z,-2.60
2019-01-25T18:56:09.465Z,-2.60
2019-01-25T18:58:38.980Z,-2.60
2019-01-25T19:01:08.386Z,-2.60
2019-01-25T19:03:37.839Z,-2.60
2019-01-25T19:06:08.823Z,-2.60
2019-01-25T19:08:38.270Z,-2.60
2019-01-25T19:11:07.689Z,-2.50
2019-01-25T19:13:37.134Z,-2.60
2019-01-25T19:16:07.822Z,-2.50
2019-01-25T19:18:37.274Z,-2.60
2019-01-25T19:21:08.491Z,-2.50
2019-01-25T19:23:37.937Z,-2.50
2019-01-25T19:26:07.346Z,-2.50
2019-01-25T19:28:36.795Z,-2.50
2019-01-25T19:31:07.523Z,-2.50
2019-01-25T19:33:37.018Z,-2.50
2019-01-25T19:36:06.473Z,-2.50
2019-01-25T19:38:35.953Z,-2.40
2019-01-25T19:41:05.473Z,-2.50
2019-01-25T19:43:34.890Z,-2.50
2019-01-25T19:46:05.613Z,-2.50
2019-01-25T19:48:35.140Z,-2.50
2019-01-25T19:51:04.609Z,-2.50
2019-01-25T19:53:34.089Z,-2.50
2019-01-25T19:56:03.607Z,-2.40
2019-01-25T19:58:33.085Z,-2.40
2019-01-25T20:01:02.603Z,-2.40
2019-01-25T20:03:32.092Z,-2.40
2019-01-25T20:06:02.979Z,-2.40
2019-01-25T20:08:32.466Z,-2.40
2019-01-25T20:11:01.983Z,-2.40
2019-01-25T20:13:31.479Z,-2.40
2019-01-25T20:16:02.197Z,-2.40
2019-01-25T20:18:31.682Z,-2.50
2019-01-25T20:21:02.702Z,-2.40
2019-01-25T20:23:32.197Z,-2.40
2019-01-25T20:26:03.010Z,-2.40
2019-01-25T20:28:32.517Z,-2.40
2019-01-25T20:31:03.236Z,-2.40
2019-01-25T20:33:32.715Z,-2.40
2019-01-25T20:36:03.503Z,-2.40
2019-01-25T20:38:32.989Z,-2.30
2019-01-25T20:41:02.579Z,-2.30
2019-01-25T20:43:32.162Z,-2.40
2019-01-25T20:46:01.620Z,-2.40
2019-01-25T20:48:31.107Z,-2.40
2019-01-25T20:51:01.827Z,-2.40
2019-01-25T20:53:31.386Z,-2.30
2019-01-25T20:56:00.912Z,-2.30
2019-01-25T20:58:30.390Z,-2.40
2019-01-25T21:00:59.977Z,-2.40
2019-01-25T21:03:29.528Z,-2.30
2019-01-25T21:06:00.313Z,-2.30
2019-01-25T21:08:29.829Z,-2.30
2019-01-25T21:11:00.613Z,-2.30
2019-01-25T21:13:30.142Z,-2.20
2019-01-25T21:16:01.573Z,-2.30
2019-01-25T21:18:30.771Z,-2.30
2019-01-25T21:21:01.570Z,-2.30
2019-01-25T21:23:31.357Z,-2.30
2019-01-25T21:26:00.841Z,-2.30
2019-01-25T21:28:30.367Z,-2.20
2019-01-25T21:30:59.922Z,-2.20
2019-01-25T21:33:29.494Z,-2.20
2019-01-25T21:35:58.978Z,-2.20
2019-01-25T21:38:28.429Z,-2.20
2019-01-25T21:40:59.206Z,-2.20
2019-01-25T21:43:28.722Z,-2.20
2019-01-25T21:45:59.408Z,-2.20
2019-01-25T21:48:28.925Z,-2.20
2019-01-25T21:50:59.706Z,-2.10
2019-01-25T21:53:29.226Z,-2.10
2019-01-25T21:55:58.678Z,-2.10
2019-01-25T21:58:28.354Z,-2.10
2019-01-25T22:00:57.781Z,-2.00
2019-01-25T22:03:27.303Z,-2.10
2019-01-25T22:05:58.194Z,-2.10
2019-01-25T22:08:27.713Z,-2.10
2019-01-25T22:10:58.409Z,-2.00
2019-01-25T22:13:27.873Z,-2.00
2019-01-25T22:15:58.738Z,-2.10
2019-01-25T22:18:28.271Z,-2.00
2019-01-25T22:20:59.179Z,-2.00
2019-01-25T22:23:28.658Z,-2.00
2019-01-25T22:25:59.520Z,-2.00
2019-01-25T22:28:28.938Z,-2.00
2019-01-25T22:30:59.855Z,-2.00
2019-01-25T22:33:29.262Z,-2.00
2019-01-25T22:36:00.144Z,-2.00
2019-01-25T22:38:29.529Z,-1.90
2019-01-25T22:41:00.530Z,-1.90
2019-01-25T22:43:30.010Z,-1.90
2019-01-25T22:46:00.774Z,-2.00
2019-01-25T22:48:30.299Z,-2.00
2019-01-25T22:51:01.101Z,-2.00
2019-01-25T22:53:30.600Z,-1.90
2019-01-25T22:56:01.314Z,-1.90
2019-01-25T22:58:30.794Z,-1.90
2019-01-25T23:01:09.023Z,-1.90
2019-01-25T23:03:47.658Z,-1.80
2019-01-25T23:06:29.406Z,-1.80
2019-01-25T23:09:02.505Z,-1.80
2019-01-25T23:11:33.493Z,-1.80
2019-01-25T23:14:04.740Z,-1.80
2019-01-25T23:16:34.465Z,-1.80
2019-01-25T23:19:05.167Z,-1.80
2019-01-25T23:21:35.146Z,-1.70
2019-01-25T23:24:06.127Z,-1.80
2019-01-25T23:26:36.955Z,-1.70
2019-01-25T23:29:06.437Z,-1.70
2019-01-25T23:31:35.882Z,-1.70
2019-01-25T23:34:05.470Z,-1.70
2019-01-25T23:36:34.981Z,-1.70
2019-01-25T23:39:07.037Z,-1.80
2019-01-25T23:41:38.279Z,-1.80
2019-01-25T23:44:09.308Z,-1.80
2019-01-25T23:46:38.838Z,-1.80
2019-01-25T23:49:08.321Z,-1.80
2019-01-25T23:51:37.914Z,-1.90
2019-01-25T23:54:07.367Z,-1.90
2019-01-25T23:56:36.854Z,-1.90
2019-01-25T23:59:06.366Z,-1.90
